createdAt,value
2022-08-03T00:18:58.166Z,36.25
2022-08-03T00:21:26.382Z,36.33
2022-08-03T00:24:31.704Z,36.41
2022-08-03T00:26:59.935Z,36.47
2022-08-03T00:29:28.171Z,36.34
2022-08-03T00:32:33.502Z,36.38
2022-08-03T00:35:37.225Z,36.3
2022-08-03T00:37:58.853Z,36.56
2022-08-03T00:40:27.117Z,36.43
2022-08-03T00:43:32.451Z,36.7
2022-08-03T00:46:00.658Z,36.76
2022-08-03T00:48:29.847Z,37.04
2022-08-03T00:51:34.234Z,36.88
2022-08-03T00:54:02.466Z,36.97
2022-08-03T00:56:30.710Z,37.11
2022-08-03T00:58:58.968Z,37.14
2022-08-03T01:01:27.312Z,37.24
2022-08-03T01:04:32.514Z,37.43
2022-08-03T01:07:00.765Z,37.29
2022-08-03T01:09:29.014Z,37.18
2022-08-03T01:12:34.322Z,37.29
2022-08-03T01:15:02.584Z,37.48
2022-08-03T01:17:30.813Z,37.69
2022-08-03T01:19:59.083Z,35.65
2022-08-03T01:22:27.325Z,37.33
2022-08-03T01:26:09.708Z,37.97
2022-08-03T01:29:15.035Z,37.45
2022-08-03T01:33:34.705Z,37.55
2022-08-03T01:36:02.746Z,37.78
2022-08-03T01:38:30.937Z,37.87
2022-08-03T01:40:59.208Z,37.89
2022-08-03T01:43:55.740Z,37.74
2022-08-03T01:46:24.545Z,37.81
2022-08-03T01:49:29.932Z,37.87
2022-08-03T01:52:02.935Z,37.79
2022-08-03T01:55:03.441Z,37.99
2022-08-03T01:57:31.728Z,38.03
2022-08-03T01:59:59.954Z,38.1
2022-08-03T02:02:33.761Z,38.29
2022-08-03T02:05:33.532Z,38.32
2022-08-03T02:08:01.772Z,38.33
2022-08-03T02:10:35.068Z,38.33
2022-08-03T02:12:58.235Z,38.53
2022-08-03T02:15:26.457Z,38.25
2022-08-03T02:18:31.868Z,38.66
2022-08-03T02:21:00.033Z,38.54
2022-08-03T02:23:28.346Z,38.61
2022-08-03T02:26:33.613Z,38.38
2022-08-03T02:29:01.874Z,38.56
2022-08-03T02:31:30.087Z,38.99
2022-08-03T02:33:58.374Z,38.94
2022-08-03T02:36:26.573Z,38.89
2022-08-03T02:39:31.916Z,38.28
2022-08-03T02:42:00.148Z,38.32
2022-08-03T02:44:28.392Z,38.51
2022-08-03T02:47:52.179Z,38.42
2022-08-03T02:49:53.811Z,38.21
2022-08-03T02:52:22.051Z,38.39
2022-08-03T02:56:04.394Z,38.59
2022-08-03T02:58:32.634Z,38.9
2022-08-03T03:01:00.927Z,39.05
2022-08-03T03:03:29.793Z,38.42
2022-08-03T03:06:34.427Z,38.55
2022-08-03T03:09:02.684Z,38.26
2022-08-03T03:11:30.927Z,38.61
2022-08-03T03:13:59.201Z,38.45
2022-08-03T03:16:27.427Z,38.25
2022-08-03T03:20:09.802Z,38.65
2022-08-03T03:23:15.106Z,39
2022-08-03T03:26:20.419Z,38.46
2022-08-03T03:29:25.735Z,38.91
2022-08-03T03:32:31.037Z,38.38
2022-08-03T03:34:59.290Z,38.69
2022-08-03T03:37:27.521Z,39.29
2022-08-03T03:40:32.870Z,39.11
2022-08-03T03:43:01.099Z,38.97
2022-08-03T03:45:29.337Z,39.26
2022-08-03T03:48:26.478Z,39.13
2022-08-03T03:51:31.781Z,39.02
2022-08-03T03:53:59.987Z,39.11
2022-08-03T03:56:28.312Z,39.27
2022-08-03T03:59:33.558Z,38.84
2022-08-03T04:02:01.971Z,39.11
2022-08-03T04:04:30.067Z,39.23
2022-08-03T04:06:58.347Z,39.2
2022-08-03T04:09:26.554Z,38.91
2022-08-03T04:12:31.925Z,38.82
2022-08-03T04:15:00.169Z,38.81
2022-08-03T04:17:28.394Z,39.37
2022-08-03T04:20:33.696Z,39.68
2022-08-03T04:23:01.955Z,39.17
2022-08-03T04:25:30.198Z,39.51
2022-08-03T04:28:07.821Z,39.35
2022-08-03T04:30:26.684Z,39.6
2022-08-03T04:33:32.417Z,39.79
2022-08-03T04:36:02.448Z,39.73
2022-08-03T04:38:28.512Z,40.03
2022-08-03T04:41:33.783Z,39.71
2022-08-03T04:44:02.064Z,39.69
2022-08-03T04:46:30.314Z,39.95
2022-08-03T04:48:50.359Z,39.93
2022-08-03T04:51:18.601Z,40.33
2022-08-03T04:55:00.965Z,40.65
2022-08-03T04:57:29.205Z,40.89
2022-08-03T05:00:34.531Z,40.9
2022-08-03T05:03:02.775Z,40.9
2022-08-03T05:05:38.732Z,40.73
2022-08-03T05:07:59.272Z,40.95
2022-08-03T05:10:27.531Z,40.27
2022-08-03T05:13:32.826Z,40.37
2022-08-03T05:16:01.040Z,40.64
2022-08-03T05:18:29.328Z,40.45
2022-08-03T05:20:57.588Z,40.27
2022-08-03T05:23:25.825Z,40.06
2022-08-03T05:26:31.115Z,40.17
2022-08-03T05:28:59.381Z,40.42
2022-08-03T05:31:27.654Z,40.47
2022-08-03T05:34:32.937Z,40.57
2022-08-03T05:37:01.190Z,40.57
2022-08-03T05:39:29.416Z,40.63
2022-08-03T05:42:34.732Z,40.53
2022-08-03T05:45:02.990Z,40.74
2022-08-03T05:47:31.259Z,40.73
2022-08-03T05:49:51.272Z,40.53
2022-08-03T05:52:19.541Z,39.95
2022-08-03T05:55:24.864Z,39.64
2022-08-03T05:58:30.182Z,39.81
2022-08-03T06:00:58.430Z,39.88
2022-08-03T06:03:26.673Z,40.02
2022-08-03T06:06:32.499Z,39.75
2022-08-03T06:09:56.579Z,39.66
2022-08-03T06:12:05.558Z,39.18
2022-08-03T06:14:33.756Z,39.53
2022-08-03T06:17:02.046Z,39.26
2022-08-03T06:19:30.280Z,39.83
2022-08-03T06:21:58.521Z,39.29
2022-08-03T06:24:26.776Z,38.84
2022-08-03T06:27:36.332Z,39.16
2022-08-03T06:30:00.372Z,39.19
2022-08-03T06:32:28.594Z,38.38
2022-08-03T06:35:33.912Z,38.7
2022-08-03T06:38:02.173Z,38.86
2022-08-03T06:40:30.374Z,38.93
2022-08-03T06:42:58.667Z,38.63
2022-08-03T06:45:26.878Z,37.96
2022-08-03T06:48:24.030Z,37.5
2022-08-03T06:52:04.719Z,38.2
2022-08-03T06:53:57.603Z,37.4
2022-08-03T06:56:25.814Z,37.58
2022-08-03T07:00:05.908Z,36.93
2022-08-03T07:01:59.373Z,37.5
2022-08-03T07:04:27.662Z,36.8
2022-08-03T07:07:32.898Z,36.6
2022-08-03T07:10:02.338Z,36.7
2022-08-03T07:12:29.420Z,35.62
2022-08-03T07:15:00.583Z,36.03
2022-08-03T07:17:25.937Z,35.01
2022-08-03T07:20:32.651Z,34.57
2022-08-03T07:22:59.475Z,34.42
2022-08-03T07:25:27.713Z,33.53
2022-08-03T07:28:33.064Z,33.72
2022-08-03T07:31:01.269Z,33.47
2022-08-03T07:33:29.525Z,33.17
2022-08-03T07:36:34.849Z,33.41
2022-08-03T07:39:14.743Z,33.25
2022-08-03T07:41:31.357Z,32.91
2022-08-03T07:43:59.605Z,32.65
2022-08-03T07:46:27.824Z,33.05
2022-08-03T07:49:25.019Z,32.93
2022-08-03T07:52:30.274Z,32.85
2022-08-03T07:54:58.481Z,33
2022-08-03T07:57:26.793Z,32.86
2022-08-03T08:00:32.088Z,32.65
2022-08-03T08:03:00.320Z,32.64
2022-08-03T08:05:28.571Z,32.74
2022-08-03T08:09:10.963Z,32.69
2022-08-03T08:12:16.686Z,32.58
2022-08-03T08:15:21.579Z,32.6
2022-08-03T08:18:26.868Z,32.53
2022-08-03T08:21:53.329Z,32.5
2022-08-03T08:24:00.432Z,32.29
2022-08-03T08:26:28.685Z,32.41
2022-08-03T08:29:33.990Z,32.52
2022-08-03T08:32:02.246Z,32.32
2022-08-03T08:34:30.466Z,32.24
2022-08-03T08:36:58.754Z,32.27
2022-08-03T08:39:26.999Z,32.42
2022-08-03T08:42:32.272Z,32.45
2022-08-03T08:45:00.538Z,32.33
2022-08-03T08:47:28.803Z,32.67
2022-08-03T08:50:27.566Z,32.27
2022-08-03T08:53:31.199Z,32.15
2022-08-03T08:56:00.423Z,32.33
2022-08-03T08:58:27.729Z,32.19
2022-08-03T09:01:33.066Z,32.02
2022-08-03T09:04:01.241Z,31.91
2022-08-03T09:06:29.498Z,32.31
2022-08-03T09:08:57.787Z,32.12
2022-08-03T09:11:51.435Z,31.9
2022-08-03T09:14:35.283Z,31.95
2022-08-03T09:16:59.567Z,32.01
2022-08-03T09:19:27.839Z,32.08
2022-08-03T09:22:33.130Z,32.05
2022-08-03T09:25:23.132Z,32.19
2022-08-03T09:27:29.628Z,31.88
2022-08-03T09:30:35.277Z,32.06
2022-08-03T09:33:03.162Z,31.76
2022-08-03T09:35:51.996Z,31.69
2022-08-03T09:38:12.433Z,31.55
2022-08-03T09:40:27.921Z,31.51
2022-08-03T09:43:33.247Z,31.07
2022-08-03T09:46:01.493Z,31.22
2022-08-03T09:48:29.718Z,31.47
2022-08-03T09:52:28.903Z,31.14
2022-08-03T09:54:32.148Z,31.42
2022-08-03T09:57:00.397Z,31.13
2022-08-03T09:59:28.665Z,30.93
2022-08-03T10:02:33.959Z,31.62
2022-08-03T10:05:02.229Z,31.63
2022-08-03T10:07:30.450Z,31.76
2022-08-03T10:10:28.676Z,31.42
2022-08-03T10:12:26.959Z,30.79
2022-08-03T10:16:21.060Z,31.52
2022-08-03T10:18:00.504Z,30.83
2022-08-03T10:20:28.872Z,30.62
2022-08-03T10:23:34.207Z,30.25
2022-08-03T10:26:02.326Z,30.7
2022-08-03T10:28:30.580Z,30.27
2022-08-03T10:30:58.842Z,30.41
2022-08-03T10:33:49.340Z,30.35
2022-08-03T10:36:32.562Z,30.41
2022-08-03T10:39:00.642Z,30.09
2022-08-03T10:41:28.928Z,30.77
2022-08-03T10:43:57.156Z,30.63
2022-08-03T10:46:25.357Z,30.57
2022-08-03T10:50:03.074Z,31.19
2022-08-03T10:51:58.947Z,30.44
2022-08-03T10:54:27.180Z,30.59
2022-08-03T10:57:32.470Z,30.73
2022-08-03T11:00:37.880Z,31.33
2022-08-03T11:02:57.861Z,31
2022-08-03T11:05:26.157Z,30.98
2022-08-03T11:08:31.422Z,31.56
2022-08-03T11:10:59.699Z,30.68
2022-08-03T11:13:27.891Z,30.99
2022-08-03T11:16:33.237Z,31.51
2022-08-03T11:19:01.453Z,31.77
2022-08-03T11:21:30.471Z,30.66
2022-08-03T11:24:03.651Z,30.72
2022-08-03T11:26:26.191Z,30.56
2022-08-03T11:29:31.565Z,30.46
2022-08-03T11:31:59.827Z,30.79
2022-08-03T11:34:28.007Z,30.34
2022-08-03T11:37:33.524Z,30.17
2022-08-03T11:40:02.622Z,30.18
2022-08-03T11:42:29.812Z,30.27
2022-08-03T11:44:58.080Z,30.84
2022-08-03T11:47:26.323Z,29.13
2022-08-03T11:51:08.725Z,29.1
2022-08-03T11:54:14.047Z,29.92
2022-08-03T11:57:19.490Z,28.69
2022-08-03T12:00:25.964Z,28.01
2022-08-03T12:03:30.002Z,28.12
2022-08-03T12:05:58.223Z,27.94
2022-08-03T12:08:26.470Z,27.5
2022-08-03T12:10:54.689Z,28.64
2022-08-03T12:13:56.926Z,28.47
2022-08-03T12:16:20.050Z,28.37
2022-08-03T12:19:25.457Z,26.92
2022-08-03T12:22:30.670Z,25.68
2022-08-03T12:24:58.929Z,26.08
2022-08-03T12:27:27.182Z,25.59
2022-08-03T12:30:32.502Z,25.56
2022-08-03T12:33:00.723Z,26.62
2022-08-03T12:35:28.955Z,24.9
2022-08-03T12:38:36.369Z,24.99
2022-08-03T12:41:02.568Z,25.72
2022-08-03T12:43:36.748Z,25.76
2022-08-03T12:45:59.025Z,25.72
2022-08-03T12:48:27.823Z,24.81
2022-08-03T12:51:32.592Z,23.5
2022-08-03T12:54:00.834Z,23.62
2022-08-03T12:56:29.101Z,25.15
2022-08-03T12:59:35.107Z,25.01
2022-08-03T13:02:02.905Z,23.96
2022-08-03T13:04:31.624Z,22.81
2022-08-03T13:07:02.857Z,23.51
2022-08-03T13:09:27.400Z,24.45
2022-08-03T13:12:32.714Z,23.62
2022-08-03T13:14:52.760Z,23.34
2022-08-03T13:17:21.296Z,23.11
2022-08-03T13:20:26.690Z,22.54
2022-08-03T13:23:31.631Z,23.24
2022-08-03T13:25:59.880Z,22.93
2022-08-03T13:28:28.147Z,24.77
2022-08-03T13:31:33.475Z,25.24
2022-08-03T13:34:01.691Z,23.44
2022-08-03T13:36:30.023Z,22.31
2022-08-03T13:38:58.200Z,22.38
2022-08-03T13:41:29.133Z,21.03
2022-08-03T13:44:31.778Z,22.07
2022-08-03T13:46:59.990Z,22.56
2022-08-03T13:49:28.227Z,23.43
2022-08-03T13:52:33.586Z,21.94
2022-08-03T13:55:01.787Z,22.08
2022-08-03T13:58:02.026Z,21.57
2022-08-03T13:59:58.278Z,21.15
2022-08-03T14:02:26.614Z,23.42
2022-08-03T14:05:32.340Z,22.12
2022-08-03T14:08:03.083Z,22.91
2022-08-03T14:10:28.351Z,21.92
2022-08-03T14:13:25.461Z,22.1
2022-08-03T14:16:30.752Z,21.35
2022-08-03T14:18:59.055Z,22.15
2022-08-03T14:21:27.291Z,20.34
2022-08-03T14:24:32.588Z,20.48
2022-08-03T14:27:07.265Z,21.88
2022-08-03T14:29:29.115Z,19.55
2022-08-03T14:32:10.521Z,19.27
2022-08-03T14:34:25.591Z,18.94
2022-08-03T14:37:30.870Z,18.22
2022-08-03T14:40:00.203Z,18.68
2022-08-03T14:42:27.355Z,19.46
2022-08-03T14:45:32.675Z,19.22
2022-08-03T14:50:35.224Z,19.92
2022-08-03T14:52:20.393Z,20.09
2022-08-03T14:55:25.685Z,20.06
2022-08-03T14:58:30.972Z,19.93
2022-08-03T15:00:59.273Z,20.37
2022-08-03T15:03:27.493Z,20.48
2022-08-03T15:06:32.794Z,19.85
2022-08-03T15:09:21.053Z,19.19
2022-08-03T15:11:29.309Z,19.84
2022-08-03T15:15:03.492Z,19.49
2022-08-03T15:17:31.747Z,20.47
2022-08-03T15:20:19.595Z,19.55
2022-08-03T15:22:34.300Z,19.4
2022-08-03T15:26:01.941Z,19.26
2022-08-03T15:28:03.180Z,20.03
2022-08-03T15:30:30.035Z,18.51
2022-08-03T15:32:58.288Z,20.04
2022-08-03T15:35:26.544Z,19.58
2022-08-03T15:38:31.866Z,19.78
2022-08-03T15:41:00.134Z,19.62
2022-08-03T15:43:28.338Z,19.59
2022-08-03T15:46:33.653Z,19.51
2022-08-03T15:49:01.909Z,18.64
2022-08-03T15:51:30.161Z,19.09
2022-08-03T15:53:58.365Z,40.7
2022-08-03T15:57:03.702Z,19.69
2022-08-03T15:59:31.980Z,19.73
2022-08-03T16:02:00.335Z,20.55
2022-08-03T16:04:28.454Z,20.5
2022-08-03T16:07:33.762Z,19.46
2022-08-03T16:10:02.000Z,19.82
2022-08-03T16:12:30.252Z,19.78
2022-08-03T16:14:58.488Z,19.3
2022-08-03T16:17:26.734Z,18.54
2022-08-03T16:20:34.119Z,18.68
2022-08-03T16:23:37.385Z,19.96
2022-08-03T16:25:57.418Z,18.68
2022-08-03T16:28:25.661Z,18.25
2022-08-03T16:32:09.467Z,19.91
2022-08-03T16:35:19.352Z,19.25
2022-08-03T16:38:19.492Z,18.97
2022-08-03T16:41:23.992Z,18.43
2022-08-03T16:44:29.315Z,17.57
2022-08-03T16:47:34.601Z,19.29
2022-08-03T16:50:05.834Z,19.15
2022-08-03T16:52:31.059Z,19.86
2022-08-03T16:54:59.346Z,20.02
2022-08-03T16:57:55.703Z,20.39
2022-08-03T17:03:03.996Z,19.56
2022-08-03T17:05:32.569Z,20.94
2022-08-03T17:08:34.681Z,20.94
2022-08-03T17:11:02.945Z,20.43
2022-08-03T17:13:39.650Z,20.99
2022-08-03T17:16:01.167Z,20.26
2022-08-03T17:18:27.724Z,21.28
2022-08-03T17:22:10.079Z,21.54
2022-08-03T17:25:21.810Z,21.3
2022-08-03T17:28:42.900Z,20.33
2022-08-03T17:31:31.020Z,19.35
2022-08-03T17:34:31.305Z,20.73
2022-08-03T17:37:04.378Z,20.71
2022-08-03T17:39:48.760Z,21.24
2022-08-03T17:44:08.078Z,21.32
2022-08-03T17:46:12.227Z,21.48
2022-08-03T17:49:23.870Z,21.17
2022-08-03T17:52:22.237Z,21.41
2022-08-03T17:55:51.429Z,21.47
2022-08-03T17:58:32.628Z,22
2022-08-03T18:01:00.840Z,22.19
2022-08-03T18:03:29.275Z,22.79
2022-08-03T18:06:34.449Z,22.94
2022-08-03T18:09:05.039Z,22.9
2022-08-03T18:11:35.811Z,22.9
2022-08-03T18:13:59.179Z,22.67
2022-08-03T18:16:27.417Z,22.69
2022-08-03T18:20:01.718Z,22.87
2022-08-03T18:22:02.403Z,23.11
2022-08-03T18:24:29.239Z,22.89
2022-08-03T18:30:02.785Z,23.12
2022-08-03T18:32:31.064Z,23.4
2022-08-03T18:36:17.326Z,23.69
2022-08-03T18:39:19.624Z,23.38
2022-08-03T18:42:26.099Z,23.92
2022-08-03T18:45:55.409Z,23.77
2022-08-03T18:47:57.595Z,24.01
2022-08-03T18:50:25.831Z,24.46
2022-08-03T18:54:02.053Z,24.35
2022-08-03T18:56:28.279Z,24.15
2022-08-03T18:59:33.556Z,24.02
2022-08-03T19:04:30.101Z,24.34
2022-08-03T19:06:58.332Z,24.37
2022-08-03T19:10:04.520Z,24.55
2022-08-03T19:13:11.266Z,24.86
2022-08-03T19:16:14.251Z,24.86
2022-08-03T19:19:19.598Z,24.85
2022-08-03T19:22:25.158Z,25.2
2022-08-03T19:25:34.292Z,25.38
2022-08-03T19:27:58.436Z,25.39
2022-08-03T19:30:26.675Z,25.55
2022-08-03T19:33:32.035Z,25.77
2022-08-03T19:36:00.261Z,25.73
2022-08-03T19:38:29.743Z,25.94
2022-08-03T19:41:41.751Z,25.95
2022-08-03T19:45:17.116Z,26.24
2022-08-03T19:52:03.882Z,26.8
2022-08-03T19:54:32.225Z,26.83
2022-08-03T19:56:52.189Z,26.89
2022-08-03T19:59:20.428Z,26.75
2022-08-03T20:01:50.179Z,27
2022-08-03T20:05:40.988Z,27.29
2022-08-03T20:12:55.813Z,27.64
2022-08-03T20:15:30.969Z,27.75
2022-08-03T20:21:34.647Z,27.73
2022-08-03T20:25:56.998Z,27.95
2022-08-03T20:31:32.164Z,28.17
2022-08-03T20:33:55.876Z,28.28
2022-08-03T20:37:01.203Z,28.41
2022-08-03T20:40:43.602Z,28.63
2022-08-03T20:47:00.395Z,28.79
2022-08-03T20:49:22.890Z,28.87
2022-08-03T20:51:52.441Z,28.96
2022-08-03T20:56:49.272Z,29.01
2022-08-03T20:59:15.425Z,28.94
2022-08-03T21:02:28.726Z,29.09
2022-08-03T21:05:30.980Z,29.51
2022-08-03T21:13:00.132Z,22.87
2022-08-03T21:13:06.332Z,24.35
2022-08-03T21:13:06.513Z,26.4
2022-08-03T21:13:06.609Z,27.9
2022-08-03T21:17:47.775Z,29.7
2022-08-03T21:23:34.971Z,30.18
2022-08-03T21:26:26.168Z,30.17
2022-08-03T21:29:31.455Z,30.59
2022-08-03T21:31:59.739Z,30.31
2022-08-03T21:34:27.990Z,30.5
2022-08-03T21:39:24.474Z,30.62
2022-08-03T21:42:21.603Z,30.63
2022-08-03T21:45:26.892Z,30.57
2022-08-03T21:48:32.237Z,30.75
2022-08-03T21:51:00.436Z,30.95
2022-08-03T21:54:02.277Z,30.89
2022-08-03T21:56:34.003Z,31.01
2022-08-03T21:59:02.265Z,30.89
2022-08-03T22:01:31.356Z,31.19
2022-08-03T22:03:58.755Z,31.4
2022-08-03T22:06:27.619Z,31.37
2022-08-03T22:10:46.462Z,31.43
2022-08-03T22:13:51.754Z,31.51
2022-08-03T22:18:48.225Z,31.55
2022-08-03T22:23:44.762Z,31.9
2022-08-03T22:27:31.204Z,31.79
2022-08-03T22:29:59.444Z,31.98
2022-08-03T22:32:27.688Z,32.17
2022-08-03T22:37:24.225Z,32.08
2022-08-03T22:39:52.480Z,32.18
2022-08-03T22:42:57.758Z,32.34
2022-08-03T22:50:32.963Z,32.29
2022-08-03T22:52:50.734Z,32.49
2022-08-03T22:57:50.999Z,32.48
2022-08-03T23:01:29.602Z,32.62
2022-08-03T23:04:34.917Z,32.7
2022-08-03T23:07:03.167Z,32.79
2022-08-03T23:09:31.422Z,32.78
2022-08-03T23:11:59.688Z,32.66
2022-08-03T23:14:27.902Z,32.77
2022-08-03T23:18:10.288Z,32.73
2022-08-03T23:22:30.531Z,33.12
2022-08-03T23:25:26.850Z,32.92
2022-08-03T23:28:32.196Z,33.26
2022-08-03T23:31:00.378Z,33.05
2022-08-03T23:33:28.673Z,33.18
2022-08-03T23:36:33.951Z,33.19
2022-08-03T23:39:02.434Z,33.16
2022-08-03T23:41:30.443Z,33.37
2022-08-03T23:43:58.716Z,33.3
2022-08-03T23:46:26.938Z,33.47
2022-08-03T23:53:51.694Z,34.03
